Time;durP1;ratioP1;P1;durP2;ratioP2;P2;SDS_P1;SDS_P2;PMS_P1;PMS_P2;Temp;Humidity;BMP_temperature;BMP_pressure;BME280_temperature;BME280_humidity;BME280_pressure;Samples;Min_cycle;Max_cycle;Signal;HPM_P1;HPM_P2
2021/05/20 00:00:10;;;;;;;25.00;22.60;;;;;;;9.03;84.25;102085.22;690591;28;919;-50
2021/05/20 00:00:30;;;;;;;25.00;22.42;;;;;;;9.01;84.16;102084.34;690577;28;1759;-50
2021/05/20 00:00:51;;;;;;;24.80;22.20;;;;;;;9.01;84.34;102079.97;693286;28;1640;-48
2021/05/20 00:01:11;;;;;;;24.65;22.25;;;;;;;9.03;84.40;102080.81;693187;28;808;-53
2021/05/20 00:01:31;;;;;;;24.10;21.67;;;;;;;9.01;84.09;102076.47;693564;28;1657;-50
2021/05/20 00:01:53;;;;;;;25.27;22.67;;;;;;;9.00;84.30;102077.38;693283;28;1029;-49
2021/05/20 00:02:14;;;;;;;25.35;22.80;;;;;;;8.98;84.56;102080.03;693277;28;828;-49
2021/05/20 00:02:34;;;;;;;25.23;22.67;;;;;;;8.97;84.26;102078.28;692969;28;1507;-49
2021/05/20 00:02:54;;;;;;;25.90;23.27;;;;;;;8.98;84.38;102077.41;693479;28;979;-51
2021/05/20 00:03:20;;;;;;;25.67;23.07;;;;;;;8.97;84.50;102083.53;693152;28;856;-51
2021/05/20 00:03:40;;;;;;;25.88;23.38;;;;;;;8.97;84.40;102083.53;693392;28;974;-51
2021/05/20 00:04:10;;;;;;;26.60;23.90;;;;;;;8.97;84.56;102077.41;691238;28;1754;-53
2021/05/20 00:04:30;;;;;;;26.67;23.88;;;;;;;8.93;84.48;102087.13;690564;28;1018;-59
2021/05/20 00:04:51;;;;;;;26.30;23.60;;;;;;;8.92;84.92;102080.13;690794;28;1029;-51
2021/05/20 00:05:12;;;;;;;26.57;23.87;;;;;;;8.90;85.02;102081.91;690501;28;934;-49
2021/05/20 00:05:41;;;;;;;25.55;23.05;;;;;;;8.92;84.88;102080.13;690667;28;1326;-50
2021/05/20 00:06:01;;;;;;;25.13;22.60;;;;;;;8.92;84.96;102079.25;690786;28;828;-49
2021/05/20 00:06:22;;;;;;;25.33;22.65;;;;;;;8.88;84.75;102083.69;690542;28;935;-51
2021/05/20 00:06:42;;;;;;;25.83;23.23;;;;;;;8.90;84.85;102081.91;690862;28;988;-49
2021/05/20 00:07:03;;;;;;;25.93;23.33;;;;;;;8.88;85.05;102078.44;690788;28;899;-50
2021/05/20 00:07:23;;;;;;;26.65;23.95;;;;;;;8.89;85.05;102082.78;690434;28;910;-49
2021/05/20 00:07:45;;;;;;;26.05;23.35;;;;;;;8.90;85.25;102081.91;690781;28;1022;-48
2021/05/20 00:08:05;;;;;;;26.08;23.48;;;;;;;8.92;85.23;102080.13;690485;28;1373;-48
2021/05/20 00:08:26;;;;;;;26.20;23.57;;;;;;;8.95;85.12;102085.34;690036;28;843;-48
2021/05/20 00:08:46;;;;;;;25.60;22.97;;;;;;;8.99;85.07;102081.75;690823;28;935;-48
2021/05/20 00:09:07;;;;;;;25.00;22.38;;;;;;;8.96;84.96;102081.81;690669;28;984;-51
2021/05/20 00:09:28;;;;;;;25.35;22.58;;;;;;;8.99;84.75;102084.41;690487;28;995;-50
2021/05/20 00:09:48;;;;;;;24.58;22.08;;;;;;;9.03;84.92;102082.59;692332;28;1491;-48
2021/05/20 00:10:10;;;;;;;25.00;22.40;;;;;;;9.00;84.59;102086.13;693466;28;872;-49
2021/05/20 00:10:30;;;;;;;25.25;22.60;;;;;;;8.97;84.62;102078.28;693214;28;1035;-51
2021/05/20 00:10:51;;;;;;;25.20;22.70;;;;;;;8.95;84.55;102077.44;692833;28;1707;-49
2021/05/20 00:11:11;;;;;;;25.60;23.02;;;;;;;8.99;84.55;102087.03;693204;28;802;-48
2021/05/20 00:11:32;;;;;;;25.57;22.97;;;;;;;8.97;84.65;102083.53;693475;28;983;-48
2021/05/20 00:11:52;;;;;;;25.20;22.60;;;;;;;8.97;84.71;102083.53;693481;28;820;-48
2021/05/20 00:12:12;;;;;;;24.67;22.23;;;;;;;8.94;84.78;102078.31;693265;28;838;-48
2021/05/20 00:12:33;;;;;;;25.00;22.50;;;;;;;8.97;84.75;102083.53;693372;28;917;-49
2021/05/20 00:12:53;;;;;;;25.58;22.98;;;;;;;8.95;84.81;102079.22;693443;28;966;-47
2021/05/20 00:13:17;;;;;;;25.60;22.97;;;;;;;8.91;84.82;102078.41;693113;28;856;-48
2021/05/20 00:13:43;;;;;;;25.52;22.55;;;;;;;8.90;85.05;102079.28;693405;28;858;-48
2021/05/20 00:14:03;;;;;;;25.20;22.50;;;;;;;9.02;84.68;102083.50;693393;28;1918;-47
2021/05/20 00:14:26;;;;;;;23.87;21.57;;;;;;;9.01;84.70;102085.22;693128;28;939;-47
2021/05/20 00:14:47;;;;;;;23.15;20.85;;;;;;;9.01;84.32;102087.00;693404;28;901;-47
2021/05/20 00:15:11;;;;;;;22.50;20.20;;;;;;;9.01;84.53;102079.97;693449;28;946;-48
2021/05/20 00:15:31;;;;;;;22.60;20.33;;;;;;;9.01;84.42;102084.34;693313;28;816;-49
2021/05/20 00:15:51;;;;;;;23.08;20.77;;;;;;;9.01;84.29;102084.34;693425;28;832;-50
2021/05/20 00:16:12;;;;;;;23.70;21.37;;;;;;;8.95;84.41;102082.72;693084;28;1159;-49
2021/05/20 00:16:32;;;;;;;23.70;21.40;;;;;;;8.95;84.49;102084.47;693447;28;938;-48
2021/05/20 00:16:52;;;;;;;24.87;22.37;;;;;;;8.92;84.82;102080.13;693450;28;935;-50
2021/05/20 00:17:12;;;;;;;24.83;22.17;;;;;;;8.92;84.64;102082.75;693041;28;966;-47
2021/05/20 00:17:33;;;;;;;24.77;22.15;;;;;;;8.92;84.89;102080.13;693457;28;989;-49
2021/05/20 00:17:53;;;;;;;23.93;21.43;;;;;;;8.91;84.76;102083.66;693540;28;995;-48
2021/05/20 00:18:13;;;;;;;24.07;21.50;;;;;;;8.91;84.82;102088.91;692962;28;1348;-47
2021/05/20 00:18:34;;;;;;;23.80;21.30;;;;;;;8.90;84.80;102087.16;693030;28;896;-47
2021/05/20 00:18:54;;;;;;;23.43;21.03;;;;;;;8.89;85.01;102088.06;693256;28;919;-47
2021/05/20 00:19:14;;;;;;;24.27;21.80;;;;;;;8.92;85.07;102089.78;692887;28;954;-47
2021/05/20 00:19:34;;;;;;;24.50;22.10;;;;;;;8.91;85.11;102085.38;693701;28;915;-47
2021/05/20 00:19:55;;;;;;;23.90;21.50;;;;;;;8.90;85.01;102083.66;692854;28;901;-48
2021/05/20 00:20:15;;;;;;;23.53;20.97;;;;;;;8.87;84.79;102081.94;693154;28;1807;-47
2021/05/20 00:20:38;;;;;;;23.70;21.27;;;;;;;8.87;85.03;102084.56;691011;28;1744;-48
2021/05/20 00:21:01;;;;;;;24.02;21.52;;;;;;;8.87;84.88;102084.56;691032;28;852;-47
2021/05/20 00:21:25;;;;;;;24.48;21.88;;;;;;;8.87;84.90;102075.81;690856;28;923;-48
2021/05/20 00:21:45;;;;;;;24.33;21.90;;;;;;;8.89;85.14;102082.78;691122;28;887;-49
2021/05/20 00:22:08;;;;;;;25.08;22.58;;;;;;;8.89;84.97;102074.91;691258;28;967;-48
2021/05/20 00:22:31;;;;;;;25.15;22.65;;;;;;;8.92;84.89;102082.75;690827;28;908;-47
2021/05/20 00:22:54;;;;;;;25.25;22.75;;;;;;;8.91;84.75;102077.50;691282;28;839;-47
2021/05/20 00:23:14;;;;;;;24.80;22.40;;;;;;;8.91;84.78;102083.66;690692;28;1361;-48
2021/05/20 00:23:35;;;;;;;24.90;22.35;;;;;;;8.92;84.63;102081.88;692179;28;1492;-47
2021/05/20 00:23:56;;;;;;;25.20;22.60;;;;;;;8.91;84.72;102072.25;694005;28;1092;-48
2021/05/20 00:24:16;;;;;;;25.38;22.77;;;;;;;8.91;84.80;102077.50;693688;28;827;-48
2021/05/20 00:24:36;;;;;;;25.80;23.23;;;;;;;8.98;84.78;102080.03;693862;28;983;-47
2021/05/20 00:24:56;;;;;;;25.17;22.58;;;;;;;9.02;84.60;102081.72;694058;28;811;-48
2021/05/20 00:25:19;;;;;;;25.20;22.67;;;;;;;9.02;84.22;102080.84;693460;28;1510;-48
2021/05/20 00:25:40;;;;;;;24.85;22.35;;;;;;;9.00;84.25;102077.38;694108;28;973;-48
2021/05/20 00:26:03;;;;;;;25.97;23.27;;;;;;;8.99;84.25;102081.75;692290;28;1696;-48
2021/05/20 00:26:24;;;;;;;26.00;23.40;;;;;;;9.00;84.30;102077.38;691049;28;1058;-47
2021/05/20 00:26:44;;;;;;;25.90;23.23;;;;;;;8.98;84.55;102076.50;691194;28;879;-47
2021/05/20 00:27:04;;;;;;;25.70;22.98;;;;;;;8.94;84.20;102075.69;691163;28;999;-46
2021/05/20 00:27:25;;;;;;;25.57;22.93;;;;;;;8.92;84.41;102074.88;691317;28;844;-49
2021/05/20 00:27:45;;;;;;;25.00;22.50;;;;;;;8.92;84.57;102079.25;691646;28;971;-48
2021/05/20 00:28:05;;;;;;;24.93;22.40;;;;;;;8.91;84.41;102083.66;691255;28;1439;-47
2021/05/20 00:28:25;;;;;;;25.10;22.60;;;;;;;8.88;84.75;102078.44;690982;28;1029;-48
2021/05/20 00:28:46;;;;;;;24.87;22.37;;;;;;;8.88;84.61;102078.44;691590;28;872;-47
2021/05/20 00:29:06;;;;;;;26.27;23.57;;;;;;;8.85;84.70;102083.75;691287;28;1090;-48
2021/05/20 00:29:26;;;;;;;26.03;23.33;;;;;;;8.85;84.70;102080.25;691120;28;1022;-47
2021/05/20 00:29:49;;;;;;;25.42;22.88;;;;;;;8.82;84.76;102078.53;691331;28;856;-49
2021/05/20 00:30:10;;;;;;;24.30;22.00;;;;;;;8.84;84.85;102081.97;691250;28;1404;-51
2021/05/20 00:30:31;;;;;;;25.55;22.95;;;;;;;8.82;85.00;102078.53;691410;28;820;-48
2021/05/20 00:30:51;;;;;;;25.48;22.80;;;;;;;8.80;84.97;102081.16;691315;28;978;-48
2021/05/20 00:31:18;;;;;;;25.10;22.53;;;;;;;8.80;84.97;102080.28;691173;28;859;-47
2021/05/20 00:31:39;;;;;;;25.73;23.17;;;;;;;8.78;84.93;102082.09;691471;28;848;-47
2021/05/20 00:31:59;;;;;;;26.47;23.57;;;;;;;8.77;85.19;102077.72;691436;28;971;-48
2021/05/20 00:32:19;;;;;;;28.10;25.17;;;;;;;8.78;85.17;102082.09;691217;28;851;-48
2021/05/20 00:32:39;;;;;;;27.88;25.10;;;;;;;8.77;85.31;102078.59;692685;28;1495;-49
2021/05/20 00:33:00;;;;;;;26.93;24.23;;;;;;;8.77;85.14;102080.34;694012;28;888;-47
2021/05/20 00:33:23;;;;;;;26.87;24.17;;;;;;;8.78;85.43;102079.47;693619;28;843;-49
2021/05/20 00:33:45;;;;;;;26.60;24.00;;;;;;;8.76;85.26;102078.59;693237;28;1372;-48
2021/05/20 00:34:06;;;;;;;27.10;24.40;;;;;;;8.76;85.41;102084.72;694057;28;1899;-50
2021/05/20 00:34:26;;;;;;;27.55;24.77;;;;;;;8.77;85.35;102080.34;693699;28;838;-49
2021/05/20 00:34:46;;;;;;;26.97;24.27;;;;;;;8.77;85.16;102080.34;693997;28;883;-49
2021/05/20 00:35:07;;;;;;;26.95;24.25;;;;;;;8.76;85.25;102084.72;693922;28;966;-50
2021/05/20 00:35:27;;;;;;;27.00;24.30;;;;;;;8.77;85.18;102080.34;693453;28;844;-48
2021/05/20 00:35:48;;;;;;;27.35;24.55;;;;;;;8.75;85.14;102085.63;693983;28;911;-48
2021/05/20 00:36:11;;;;;;;26.83;24.13;;;;;;;8.75;85.37;102076.88;693910;28;899;-49
2021/05/20 00:36:32;;;;;;;27.52;24.65;;;;;;;8.77;85.23;102088.22;693871;28;885;-47
2021/05/20 00:36:52;;;;;;;27.25;24.55;;;;;;;8.79;85.05;102089.09;693975;28;815;-47
2021/05/20 00:37:12;;;;;;;27.13;24.47;;;;;;;8.79;85.29;102089.09;693469;28;836;-48
2021/05/20 00:37:32;;;;;;;26.92;24.17;;;;;;;8.82;85.17;102086.41;693890;28;752;-48
2021/05/20 00:37:53;;;;;;;26.73;24.03;;;;;;;8.80;85.24;102091.66;693984;28;910;-48
2021/05/20 00:38:13;;;;;;;27.07;24.33;;;;;;;8.80;85.21;102085.56;693496;28;1398;-48
2021/05/20 00:38:34;;;;;;;26.98;24.33;;;;;;;8.85;84.82;102088.13;693437;28;974;-48
2021/05/20 00:38:54;;;;;;;26.73;23.93;;;;;;;8.85;84.95;102086.38;693358;28;1679;-47
2021/05/20 00:39:17;;;;;;;26.60;23.92;;;;;;;8.85;84.84;102090.75;693487;28;962;-49
2021/05/20 00:39:37;;;;;;;25.90;23.30;;;;;;;8.85;84.87;102089.00;693856;28;887;-48
2021/05/20 00:39:58;;;;;;;25.43;22.93;;;;;;;8.90;84.84;102088.91;693915;28;880;-47
2021/05/20 00:40:18;;;;;;;25.53;22.93;;;;;;;8.89;84.74;102090.69;693593;28;1049;-48
2021/05/20 00:40:38;;;;;;;26.23;23.63;;;;;;;8.89;84.54;102085.44;693118;28;1755;-49
2021/05/20 00:41:04;;;;;;;26.23;23.60;;;;;;;8.88;84.26;102091.59;692924;28;1704;-48
2021/05/20 00:41:24;;;;;;;25.13;22.63;;;;;;;8.93;84.62;102087.13;693456;28;915;-48
2021/05/20 00:41:47;;;;;;;24.90;22.40;;;;;;;8.93;84.50;102092.38;693810;28;836;-49
2021/05/20 00:42:14;;;;;;;24.60;22.15;;;;;;;8.96;84.44;102089.69;693961;28;933;-48
2021/05/20 00:42:34;;;;;;;24.58;22.17;;;;;;;8.94;84.30;102091.47;693849;28;863;-49
2021/05/20 00:42:54;;;;;;;24.55;22.15;;;;;;;8.95;84.39;102090.59;693976;28;963;-48
2021/05/20 00:43:15;;;;;;;24.50;22.10;;;;;;;8.95;84.32;102090.59;693537;28;808;-49
2021/05/20 00:43:35;;;;;;;25.43;22.93;;;;;;;8.95;84.39;102090.59;693897;28;748;-48
2021/05/20 00:43:56;;;;;;;25.58;23.17;;;;;;;8.94;84.34;102083.59;693927;28;1000;-48
2021/05/20 00:44:16;;;;;;;25.47;22.90;;;;;;;8.97;84.30;102098.44;693572;28;1022;-48
2021/05/20 00:44:53;;;;;;;24.83;22.23;;;;;;;8.96;84.35;102097.59;693860;28;946;-49
2021/05/20 00:45:14;;;;;;;24.52;21.92;;;;;;;8.97;84.10;102094.06;693421;28;1034;-49
2021/05/20 00:45:34;;;;;;;24.38;21.98;;;;;;;8.94;84.22;102102.00;693700;28;1667;-48
2021/05/20 00:45:55;;;;;;;24.57;22.17;;;;;;;8.92;83.96;102095.03;693903;28;987;-48
2021/05/20 00:46:15;;;;;;;24.27;21.88;;;;;;;8.92;84.00;102095.91;693656;28;839;-49
2021/05/20 00:46:36;;;;;;;24.33;21.93;;;;;;;8.83;84.09;102080.25;693987;28;891;-48
2021/05/20 00:47:11;;;;;;;24.85;22.27;;;;;;;8.90;84.21;102091.53;693668;28;1413;-51
2021/05/20 00:47:33;;;;;;;23.60;21.25;;;;;;;8.91;84.06;102093.28;693796;28;951;-48
2021/05/20 00:47:54;;;;;;;23.92;21.45;;;;;;;8.92;84.16;102093.28;693761;28;814;-51
2021/05/20 00:48:14;;;;;;;24.00;21.53;;;;;;;8.91;83.80;102099.44;693576;28;1323;-49
2021/05/20 00:48:34;;;;;;;24.43;21.87;;;;;;;8.90;84.13;102095.03;693442;28;903;-49
2021/05/20 00:49:09;;;;;;;24.58;22.05;;;;;;;8.91;84.12;102094.19;693814;28;915;-48
2021/05/20 00:49:35;;;;;;;24.50;22.02;;;;;;;8.90;84.17;102096.81;693459;28;971;-49
2021/05/20 00:49:56;;;;;;;25.17;22.63;;;;;;;8.86;84.17;102089.88;693848;28;847;-49
2021/05/20 00:50:16;;;;;;;25.23;22.63;;;;;;;8.87;84.32;102102.09;693551;28;954;-48
2021/05/20 00:50:36;;;;;;;25.37;22.80;;;;;;;8.87;84.11;102092.44;693677;28;821;-51
2021/05/20 00:50:56;;;;;;;25.83;22.77;;;;;;;8.84;84.16;102097.75;693831;28;788;-49
2021/05/20 00:51:17;;;;;;;24.57;22.03;;;;;;;8.84;84.11;102087.25;693499;28;963;-50
2021/05/20 00:51:40;;;;;;;24.75;22.30;;;;;;;8.84;84.26;102097.75;693808;28;919;-50
2021/05/20 00:52:00;;;;;;;25.15;22.45;;;;;;;8.85;84.37;102098.66;693873;28;824;-51
2021/05/20 00:52:21;;;;;;;24.60;22.10;;;;;;;8.85;84.32;102094.25;693627;28;1018;-48
2021/05/20 00:52:44;;;;;;;23.98;21.55;;;;;;;8.84;84.17;102097.75;693762;28;1014;-49
2021/05/20 00:53:07;;;;;;;23.52;21.13;;;;;;;8.84;84.32;102097.75;693803;28;1332;-48
2021/05/20 00:53:44;;;;;;;24.00;21.52;;;;;;;8.81;84.21;102095.19;693384;28;1089;-48
2021/05/20 00:54:05;;;;;;;24.55;22.15;;;;;;;8.84;84.42;102103.00;690467;28;1958;-48
2021/05/20 00:54:25;;;;;;;23.60;21.20;;;;;;;8.92;84.38;102101.16;690721;28;1058;-48
2021/05/20 00:54:51;;;;;;;23.73;21.35;;;;;;;8.93;83.88;102100.25;691186;28;1025;-48
2021/05/20 00:55:19;;;;;;;23.17;20.88;;;;;;;8.91;84.07;102099.44;690825;28;900;-48
2021/05/20 00:55:39;;;;;;;22.65;20.42;;;;;;;8.91;84.04;102102.06;691118;28;907;-48
2021/05/20 00:56:00;;;;;;;23.83;21.42;;;;;;;8.90;84.01;102105.56;691010;28;857;-49
2021/05/20 00:56:22;;;;;;;23.17;20.90;;;;;;;8.91;83.87;102104.69;690728;28;1021;-48
2021/05/20 00:56:43;;;;;;;23.73;21.42;;;;;;;8.90;84.16;102102.94;691162;28;991;-47
2021/05/20 00:57:04;;;;;;;23.70;21.38;;;;;;;8.87;84.02;102102.97;691039;28;966;-50
2021/05/20 00:57:25;;;;;;;23.92;21.60;;;;;;;8.85;84.27;102099.50;690826;28;800;-48
2021/05/20 00:57:47;;;;;;;23.33;20.92;;;;;;;8.83;84.10;102101.28;691126;28;855;-49
2021/05/20 00:58:11;;;;;;;23.02;20.73;;;;;;;8.84;84.36;102103.00;690978;28;1284;-50
2021/05/20 00:58:34;;;;;;;23.00;20.70;;;;;;;8.84;84.48;102103.00;690867;28;1007;-49
2021/05/20 00:58:55;;;;;;;23.08;20.67;;;;;;;8.85;84.33;102103.91;691290;28;903;-52
2021/05/20 00:59:18;;;;;;;22.95;20.55;;;;;;;8.83;84.35;102111.81;691012;28;892;-51
2021/05/20 00:59:39;;;;;;;23.38;20.88;;;;;;;8.81;84.55;102103.09;691279;28;1486;-53
2021/05/20 01:00:11;;;;;;;23.15;20.80;;;;;;;8.79;84.51;102107.47;691201;28;943;-52
2021/05/20 01:00:32;;;;;;;24.50;21.90;;;;;;;8.80;84.37;102106.59;691676;28;868;-53
2021/05/20 01:00:55;;;;;;;24.50;22.08;;;;;;;8.84;84.31;102108.28;691528;28;999;-51
2021/05/20 01:01:16;;;;;;;23.85;21.55;;;;;;;8.83;84.29;102106.53;691081;28;906;-52
2021/05/20 01:01:36;;;;;;;23.73;21.52;;;;;;;8.82;84.22;102104.81;691366;28;843;-52
2021/05/20 01:01:56;;;;;;;22.23;20.10;;;;;;;8.78;84.46;102092.63;691302;28;868;-50
2021/05/20 01:02:18;;;;;;;23.50;21.03;;;;;;;8.78;84.26;102100.50;691486;28;1476;-52
2021/05/20 01:02:43;;;;;;;24.55;22.02;;;;;;;8.82;84.59;102102.19;694020;28;839;-52
2021/05/20 01:03:03;;;;;;;25.27;22.60;;;;;;;8.85;84.59;102102.16;694097;28;1039;-47
2021/05/20 01:03:24;;;;;;;24.80;22.30;;;;;;;8.85;84.23;102098.66;693510;28;991;-52
2021/05/20 01:03:45;;;;;;;23.47;21.07;;;;;;;8.85;84.31;102104.78;693825;28;1022;-51
2021/05/20 01:04:05;;;;;;;24.15;21.75;;;;;;;8.84;84.20;102103.00;693928;28;852;-51
2021/05/20 01:04:26;;;;;;;23.67;21.27;;;;;;;8.85;84.36;102103.91;693676;28;843;-51
2021/05/20 01:04:47;;;;;;;23.42;21.00;;;;;;;8.84;84.37;102100.38;694024;28;963;-49
2021/05/20 01:05:12;;;;;;;23.13;20.83;;;;;;;8.83;84.38;102101.28;693994;28;895;-49
2021/05/20 01:05:35;;;;;;;23.48;21.17;;;;;;;8.80;84.32;102098.69;693912;28;844;-52
2021/05/20 01:05:55;;;;;;;23.73;21.27;;;;;;;8.80;84.29;102096.06;693994;28;914;-50
2021/05/20 01:06:18;;;;;;;23.23;20.80;;;;;;;8.82;84.27;102104.81;693402;28;1170;-52
2021/05/20 01:06:39;;;;;;;22.90;20.60;;;;;;;8.81;84.05;102100.47;694043;28;881;-51
2021/05/20 01:07:05;;;;;;;22.63;20.43;;;;;;;8.84;84.33;102105.63;694030;28;899;-49
2021/05/20 01:07:25;;;;;;;22.13;19.92;;;;;;;8.83;84.19;102103.91;693401;28;1033;-46
2021/05/20 01:07:46;;;;;;;22.67;20.42;;;;;;;8.83;84.47;102101.28;693869;28;595;-47
2021/05/20 01:08:06;;;;;;;22.93;20.53;;;;;;;8.81;84.33;102097.81;693705;28;1227;-48
2021/05/20 01:08:27;;;;;;;23.60;21.10;;;;;;;8.81;84.33;102097.81;693051;28;875;-48
2021/05/20 01:08:47;;;;;;;23.52;21.13;;;;;;;8.79;84.38;102110.97;693838;28;835;-48
2021/05/20 01:09:07;;;;;;;23.63;21.23;;;;;;;8.79;84.49;102102.22;693703;28;987;-49
2021/05/20 01:09:35;;;;;;;23.90;21.50;;;;;;;8.79;84.38;102102.22;693492;28;979;-49
2021/05/20 01:09:56;;;;;;;23.48;21.17;;;;;;;8.82;84.35;102104.81;693759;28;842;-48
2021/05/20 01:10:16;;;;;;;22.60;20.40;;;;;;;8.80;84.35;102103.94;693631;28;838;-48
2021/05/20 01:10:37;;;;;;;22.70;20.43;;;;;;;8.89;84.11;102106.47;693581;28;1374;-48
2021/05/20 01:10:58;;;;;;;22.90;20.58;;;;;;;8.89;83.84;102105.59;693120;28;1735;-48
2021/05/20 01:11:19;;;;;;;22.00;19.80;;;;;;;8.94;84.00;102099.34;693385;28;1487;-48
2021/05/20 01:11:40;;;;;;;22.50;20.30;;;;;;;8.91;83.68;102099.44;693540;28;1317;-47
2021/05/20 01:12:05;;;;;;;21.73;19.52;;;;;;;8.91;83.79;102109.94;693856;28;851;-48
2021/05/20 01:12:26;;;;;;;21.52;19.33;;;;;;;8.89;83.66;102111.72;693480;28;1371;-48
2021/05/20 01:12:46;;;;;;;21.43;19.30;;;;;;;8.87;84.00;102102.97;693694;28;984;-47
2021/05/20 01:13:06;;;;;;;22.73;20.47;;;;;;;8.85;83.72;102103.91;693571;28;1253;-47
2021/05/20 01:13:29;;;;;;;22.63;20.42;;;;;;;8.83;84.12;102101.28;692829;28;1728;-47
2021/05/20 01:13:52;;;;;;;22.23;20.13;;;;;;;8.79;84.16;102104.84;693581;28;955;-47
2021/05/20 01:14:12;;;;;;;22.13;20.00;;;;;;;8.78;84.16;102109.25;693278;28;1911;-48
2021/05/20 01:14:41;;;;;;;22.57;20.27;;;;;;;8.76;84.30;102112.78;693481;28;828;-47
2021/05/20 01:15:03;;;;;;;22.15;20.05;;;;;;;8.76;84.28;102104.91;693793;28;804;-47
2021/05/20 01:15:26;;;;;;;22.27;20.00;;;;;;;8.75;84.49;102113.69;693337;28;977;-47
2021/05/20 01:15:47;;;;;;;23.25;20.95;;;;;;;8.81;84.43;102108.34;693445;28;940;-48
2021/05/20 01:16:11;;;;;;;23.73;21.33;;;;;;;8.80;84.40;102111.84;693812;28;1006;-47
2021/05/20 01:16:31;;;;;;;23.70;21.30;;;;;;;8.80;84.51;102117.09;693897;28;1081;-47
2021/05/20 01:16:52;;;;;;;23.65;21.27;;;;;;;8.79;84.51;102115.38;693648;28;1041;-47
2021/05/20 01:17:13;;;;;;;23.97;21.50;;;;;;;8.79;84.39;102110.13;693450;28;955;-47
2021/05/20 01:17:33;;;;;;;23.40;20.92;;;;;;;8.80;84.53;102117.97;693760;28;1011;-47
2021/05/20 01:17:58;;;;;;;22.40;20.13;;;;;;;8.78;84.55;102113.66;692393;28;1433;-47
2021/05/20 01:18:22;;;;;;;21.95;19.75;;;;;;;8.76;84.51;102107.53;693559;28;1185;-47
2021/05/20 01:18:45;;;;;;;21.70;19.50;;;;;;;8.76;84.53;102112.78;693517;28;875;-47
2021/05/20 01:19:06;;;;;;;22.50;20.20;;;;;;;8.75;84.74;102113.69;693760;28;962;-47
2021/05/20 01:19:26;;;;;;;22.33;20.03;;;;;;;8.75;84.65;102113.69;693557;28;820;-47
2021/05/20 01:19:47;;;;;;;21.67;19.50;;;;;;;8.76;84.31;102110.16;693480;28;1739;-47
2021/05/20 01:20:08;;;;;;;21.88;19.70;;;;;;;8.76;84.39;102110.16;693607;28;1648;-47
2021/05/20 01:20:36;;;;;;;22.27;19.90;;;;;;;8.75;84.61;102111.06;693522;28;1179;-47
2021/05/20 01:20:56;;;;;;;21.02;18.95;;;;;;;8.73;84.72;102110.19;693614;28;1018;-47
2021/05/20 01:21:17;;;;;;;21.57;19.37;;;;;;;8.73;84.41;102112.81;693523;28;907;-47
2021/05/20 01:21:37;;;;;;;21.38;19.17;;;;;;;8.75;84.72;102108.41;693699;28;809;-48
2021/05/20 01:21:57;;;;;;;21.37;19.27;;;;;;;8.78;84.43;102103.13;693753;28;987;-48
2021/05/20 01:22:18;;;;;;;20.97;18.87;;;;;;;8.77;84.26;102111.88;693541;28;832;-47
2021/05/20 01:22:38;;;;;;;21.42;19.23;;;;;;;8.78;84.59;102111.00;693806;28;833;-48
2021/05/20 01:23:14;;;;;;;21.50;19.33;;;;;;;8.78;84.60;102113.66;693712;28;971;-48
2021/05/20 01:23:37;;;;;;;21.42;19.20;;;;;;;8.75;84.74;102114.53;693697;28;859;-47
2021/05/20 01:23:58;;;;;;;22.08;19.77;;;;;;;8.72;84.80;102111.09;693194;28;1451;-47
2021/05/20 01:24:18;;;;;;;21.25;19.25;;;;;;;8.72;84.59;102113.72;693447;28;954;-48
2021/05/20 01:24:40;;;;;;;21.57;19.37;;;;;;;8.72;84.76;102113.72;693876;28;797;-47
2021/05/20 01:25:00;;;;;;;21.00;18.83;;;;;;;8.72;84.90;102114.59;693762;28;835;-48
2021/05/20 01:25:20;;;;;;;21.70;19.43;;;;;;;8.72;84.79;102113.72;693422;28;966;-47
2021/05/20 01:25:43;;;;;;;21.45;19.25;;;;;;;8.69;84.85;102106.75;693405;28;1003;-47
2021/05/20 01:26:04;;;;;;;21.30;19.15;;;;;;;8.69;84.89;102108.50;693809;28;1743;-51
2021/05/20 01:26:29;;;;;;;21.55;19.33;;;;;;;8.70;84.83;102115.50;693435;28;925;-48
2021/05/20 01:26:53;;;;;;;22.00;19.60;;;;;;;8.73;84.79;102116.31;693844;28;905;-47
2021/05/20 01:27:15;;;;;;;21.80;19.58;;;;;;;8.74;84.85;102106.66;693176;28;1105;-47
2021/05/20 01:27:37;;;;;;;21.63;19.52;;;;;;;8.75;84.79;102109.28;693728;28;1002;-46
2021/05/20 01:28:03;;;;;;;21.42;19.33;;;;;;;8.77;84.76;102109.25;693698;28;1461;-47
2021/05/20 01:28:25;;;;;;;21.70;19.48;;;;;;;8.81;84.52;102105.72;693326;28;923;-48
2021/05/20 01:28:46;;;;;;;22.05;19.75;;;;;;;8.79;84.30;102104.84;693748;28;890;-47
2021/05/20 01:29:07;;;;;;;22.57;20.20;;;;;;;8.77;84.25;102112.78;693185;28;1326;-46
2021/05/20 01:29:27;;;;;;;22.85;20.52;;;;;;;8.74;84.48;102107.56;693520;28;824;-47
2021/05/20 01:29:47;;;;;;;22.63;20.35;;;;;;;8.73;84.33;102111.06;693704;28;951;-48
2021/05/20 01:30:08;;;;;;;23.23;20.93;;;;;;;8.74;84.52;102111.91;693684;28;856;-47
2021/05/20 01:30:34;;;;;;;23.58;21.27;;;;;;;8.76;84.63;102108.38;693467;28;1002;-47
2021/05/20 01:30:54;;;;;;;24.00;21.60;;;;;;;8.77;84.52;102110.16;693453;28;950;-48
2021/05/20 01:31:15;;;;;;;24.03;21.63;;;;;;;8.79;84.48;102113.59;692793;28;1487;-47
2021/05/20 01:31:35;;;;;;;23.90;21.53;;;;;;;8.81;84.57;102108.34;693625;28;1050;-48
2021/05/20 01:31:56;;;;;;;24.42;22.02;;;;;;;8.76;84.37;102105.75;693678;28;1007;-47
2021/05/20 01:32:16;;;;;;;24.13;21.83;;;;;;;8.79;84.68;102113.59;693326;28;1488;-47
2021/05/20 01:32:37;;;;;;;23.87;21.53;;;;;;;8.78;84.40;102113.66;693062;28;1672;-48
2021/05/20 01:32:58;;;;;;;23.50;21.20;;;;;;;8.77;84.36;102112.78;693839;28;840;-48
2021/05/20 01:33:18;;;;;;;24.15;21.75;;;;;;;8.79;84.62;102118.00;693376;28;863;-48
2021/05/20 01:33:38;;;;;;;23.60;21.30;;;;;;;8.77;84.60;102111.88;693392;28;1414;-48
2021/05/20 01:33:59;;;;;;;23.97;21.63;;;;;;;8.75;84.56;102113.69;693865;28;982;-48
2021/05/20 01:34:19;;;;;;;24.98;22.38;;;;;;;8.75;84.93;102116.31;693268;28;1908;-48
2021/05/20 01:34:54;;;;;;;23.83;21.50;;;;;;;8.73;84.84;102116.31;693888;28;903;-48
2021/05/20 01:35:14;;;;;;;24.35;21.92;;;;;;;8.68;84.76;102119.91;691603;28;1719;-49
2021/05/20 01:35:38;;;;;;;24.17;21.87;;;;;;;8.69;84.82;102114.63;693547;28;868;-48
2021/05/20 01:35:58;;;;;;;23.90;21.50;;;;;;;8.68;84.68;102112.91;693741;28;1011;-49
2021/05/20 01:36:28;;;;;;;23.77;21.27;;;;;;;8.74;84.61;102114.53;693355;28;1014;-50
2021/05/20 01:36:49;;;;;;;23.65;21.25;;;;;;;8.74;84.67;102106.66;693758;28;884;-48
2021/05/20 01:37:09;;;;;;;23.67;21.27;;;;;;;8.73;85.11;102115.44;693782;28;990;-48
2021/05/20 01:37:29;;;;;;;23.67;21.20;;;;;;;8.75;84.77;102117.19;693290;28;891;-47
2021/05/20 01:37:52;;;;;;;23.67;21.20;;;;;;;8.77;84.77;102117.13;693822;28;831;-48
2021/05/20 01:39:01;;;;;;;22.45;20.15;;;;;;;8.78;84.77;102114.50;693733;28;745;-48
2021/05/20 01:39:24;;;;;;;22.83;20.58;;;;;;;8.80;84.88;102122.34;693468;28;805;-48
2021/05/20 01:39:46;;;;;;;23.30;20.90;;;;;;;8.85;84.63;102117.91;693618;28;910;-50
2021/05/20 01:40:09;;;;;;;23.23;20.85;;;;;;;8.84;84.79;102124.03;693736;28;832;-52
2021/05/20 01:40:30;;;;;;;23.00;20.67;;;;;;;8.83;84.69;102116.19;693425;28;923;-51
2021/05/20 01:40:58;;;;;;;22.87;20.53;;;;;;;8.81;85.00;102118.84;692950;28;1735;-48
2021/05/20 01:41:19;;;;;;;23.95;21.48;;;;;;;8.82;84.95;102120.59;690747;28;872;-52
2021/05/20 01:41:39;;;;;;;23.27;20.87;;;;;;;8.83;84.81;102127.56;690779;28;837;-49
2021/05/20 01:42:00;;;;;;;22.85;20.52;;;;;;;8.85;84.82;102125.81;691111;28;983;-52
2021/05/20 01:42:20;;;;;;;22.53;20.33;;;;;;;8.84;84.88;102123.19;691017;28;1661;-51
2021/05/20 01:42:40;;;;;;;23.07;20.77;;;;;;;8.79;85.03;102121.50;693593;28;1546;-51
2021/05/20 01:43:01;;;;;;;23.17;20.77;;;;;;;8.79;85.09;102121.50;693831;28;871;-50
2021/05/20 01:43:22;;;;;;;23.27;20.83;;;;;;;8.80;85.06;102122.34;693474;28;929;-52
2021/05/20 01:43:43;;;;;;;22.80;20.60;;;;;;;8.71;84.97;102106.72;693488;28;995;-48
2021/05/20 01:44:03;;;;;;;22.88;20.48;;;;;;;8.78;85.01;102125.03;693821;28;871;-48